createdAt,value
2022-09-10T00:02:01.689Z,95559.75
2022-09-10T00:04:28.479Z,95558.38
2022-09-10T00:06:55.640Z,95554.69
2022-09-10T00:09:22.464Z,95552.22
2022-09-10T00:11:49.178Z,95558.13
2022-09-10T00:14:19.975Z,95558.13
2022-09-10T00:16:46.992Z,95550.09
2022-09-10T00:19:14.943Z,95553.84
2022-09-10T00:21:41.750Z,95553.81
2022-09-10T00:24:08.525Z,95555.09
2022-09-10T00:26:39.497Z,95557.53
2022-09-10T00:29:09.228Z,95561.84
2022-09-10T00:31:37.007Z,95560.75
2022-09-10T00:34:04.316Z,95564.50
2022-09-10T00:36:36.062Z,95559.97
2022-09-10T00:39:06.133Z,95559.97
2022-09-10T00:41:33.936Z,95563.44
2022-09-10T00:44:55.675Z,95558.66
2022-09-10T00:47:27.145Z,95560.25
2022-09-10T00:50:16.365Z,95560.75
2022-09-10T00:52:44.218Z,95560.75
2022-09-10T00:55:12.622Z,95555.41
2022-09-10T00:57:39.968Z,95560.19
2022-09-10T01:00:10.877Z,95563.38
2022-09-10T01:02:37.939Z,95556.13
2022-09-10T01:05:07.481Z,95549.97
2022-09-10T01:07:33.962Z,95548.69
2022-09-10T01:10:06.497Z,95538.75
2022-09-10T01:12:48.079Z,95539.06
2022-09-10T01:15:32.835Z,95545.75
2022-09-10T01:18:03.699Z,95538.25
2022-09-10T01:20:48.650Z,95546.75
2022-09-10T01:23:33.882Z,95541.34
2022-09-10T01:26:19.378Z,95544.03
2022-09-10T01:28:55.702Z,95534.91
2022-09-10T01:31:31.759Z,95527.69
2022-09-10T01:34:12.012Z,95529.00
2022-09-10T01:36:48.052Z,95536.22
2022-09-10T01:39:18.745Z,95529.00
2022-09-10T01:41:45.572Z,95525.25
2022-09-10T01:44:47.416Z,95530.59
2022-09-10T01:47:26.164Z,95533.53
2022-09-10T01:50:24.228Z,95526.59
2022-09-10T01:53:12.185Z,95530.88
2022-09-10T01:55:59.184Z,95535.94
2022-09-10T01:58:26.615Z,95539.69
2022-09-10T02:01:09.417Z,95546.66
2022-09-10T02:03:38.688Z,95549.56
2022-09-10T02:06:09.475Z,95538.56
2022-09-10T02:08:39.945Z,95540.69
2022-09-10T02:11:12.090Z,95535.34
2022-09-10T02:13:38.948Z,95525.47
2022-09-10T02:16:09.228Z,95531.94
2022-09-10T02:18:38.587Z,95524.22
2022-09-10T02:21:07.147Z,95525.81
2022-09-10T02:23:42.606Z,95511.63
2022-09-10T02:26:09.526Z,95512.47
2022-09-10T02:28:36.988Z,95506.03
2022-09-10T02:31:03.527Z,95499.09
2022-09-10T02:33:31.076Z,95491.06
2022-09-10T02:35:58.474Z,95499.91
2022-09-10T02:38:24.993Z,95491.88
2022-09-10T02:40:51.449Z,95491.63
2022-09-10T02:43:18.109Z,95506.13
2022-09-10T02:45:44.941Z,95501.25
2022-09-10T02:48:11.431Z,95490.56
2022-09-10T02:50:37.955Z,95492.97
2022-09-10T02:53:04.857Z,95483.91
2022-09-10T02:55:32.142Z,95487.94
2022-09-10T02:57:58.633Z,95490.84
2022-09-10T03:00:25.153Z,95485.00
2022-09-10T03:02:52.057Z,95487.94
2022-09-10T03:07:44.901Z,95474.56
2022-09-10T03:10:11.358Z,95464.44
2022-09-10T03:12:39.178Z,95456.66
2022-09-10T03:15:06.960Z,95466.25
2022-09-10T03:17:33.420Z,95470.81
2022-09-10T03:19:59.992Z,95463.81
2022-09-10T03:22:26.540Z,95457.94
2022-09-10T03:24:54.255Z,95463.53
2022-09-10T03:27:20.881Z,95464.34
2022-09-10T03:29:47.631Z,95453.66
2022-09-10T03:32:14.130Z,95449.41
2022-09-10T03:34:40.587Z,95437.66
2022-09-10T03:37:07.131Z,95432.56
2022-09-10T03:39:33.644Z,95432.28
2022-09-10T03:42:00.142Z,95426.66
2022-09-10T03:44:26.672Z,95426.41
2022-09-10T03:46:53.195Z,95428.81
2022-09-10T03:49:19.673Z,95425.38
2022-09-10T03:51:46.790Z,95414.94
2022-09-10T03:54:13.971Z,95409.81
2022-09-10T03:56:40.605Z,95420.75
2022-09-10T03:59:07.082Z,95421.53
2022-09-10T04:01:33.709Z,95429.84
2022-09-10T04:04:00.162Z,95428.25
2022-09-10T04:06:26.743Z,95422.66
2022-09-10T04:08:53.184Z,95428.00
2022-09-10T04:11:20.732Z,95421.06
2022-09-10T04:13:48.533Z,95421.06
2022-09-10T04:16:16.490Z,95423.19
2022-09-10T04:18:43.073Z,95425.63
2022-09-10T04:21:09.820Z,95426.38
2022-09-10T04:23:36.343Z,95426.88
2022-09-10T04:26:12.030Z,95442.91
2022-09-10T04:28:38.680Z,95430.38
2022-09-10T04:31:05.211Z,95430.06
2022-09-10T04:33:33.269Z,95430.06
2022-09-10T04:36:01.044Z,95429.50
2022-09-10T04:38:30.673Z,95426.59
2022-09-10T04:40:58.528Z,95422.00
2022-09-10T04:43:25.718Z,95414.75
2022-09-10T04:45:53.445Z,95412.38
2022-09-10T04:48:19.997Z,95417.72
2022-09-10T04:51:05.356Z,95404.09
2022-09-10T04:53:34.438Z,95403.06
2022-09-10T04:56:01.105Z,95398.53
2022-09-10T04:58:27.570Z,95404.66
2022-09-10T05:00:55.941Z,95404.94
2022-09-10T05:03:23.305Z,95404.44
2022-09-10T05:05:51.063Z,95407.09
2022-09-10T05:08:17.732Z,95413.81
2022-09-10T05:10:45.405Z,95411.66
2022-09-10T05:13:11.886Z,95417.78
2022-09-10T05:15:40.301Z,95411.41
2022-09-10T05:18:07.680Z,95405.00
2022-09-10T05:20:35.753Z,95410.88
2022-09-10T05:23:02.519Z,95408.22
2022-09-10T05:25:28.990Z,95405.03
2022-09-10T05:27:55.602Z,95402.34
2022-09-10T05:30:22.124Z,95407.69
2022-09-10T05:32:48.698Z,95408.78
2022-09-10T05:35:15.278Z,95408.78
2022-09-10T05:37:41.745Z,95399.13
2022-09-10T05:40:13.307Z,95401.31
2022-09-10T05:42:39.799Z,95399.69
2022-09-10T05:45:07.054Z,95389.00
2022-09-10T05:47:34.482Z,95398.06
2022-09-10T05:50:00.965Z,95391.09
2022-09-10T05:52:27.625Z,95390.34
2022-09-10T05:54:56.512Z,95386.88
2022-09-10T05:57:23.075Z,95393.59
2022-09-10T05:59:49.569Z,95394.38
2022-09-10T06:02:23.245Z,95390.66
2022-09-10T06:04:50.521Z,95385.56
2022-09-10T06:07:16.984Z,95385.84
2022-09-10T06:09:43.616Z,95387.38
2022-09-10T06:12:10.165Z,95390.00
2022-09-10T06:14:36.833Z,95387.88
2022-09-10T06:17:03.399Z,95390.53
2022-09-10T06:19:30.407Z,95393.75
2022-09-10T06:21:56.887Z,95395.66
2022-09-10T06:24:24.538Z,95389.53
2022-09-10T06:26:51.235Z,95394.09
2022-09-10T06:29:20.881Z,95383.97
2022-09-10T06:31:47.589Z,95387.44
2022-09-10T06:34:14.266Z,95393.09
2022-09-10T06:36:41.519Z,95393.34
2022-09-10T06:39:07.995Z,95400.84
2022-09-10T06:41:34.707Z,95386.41
2022-09-10T06:44:01.298Z,95385.66
2022-09-10T06:49:15.249Z,95386.75
2022-09-10T06:51:42.526Z,95398.50
2022-09-10T06:54:09.060Z,95391.56
2022-09-10T06:56:35.569Z,95390.75
2022-09-10T06:59:02.762Z,95397.69
2022-09-10T07:01:29.945Z,95389.69
2022-09-10T07:03:59.177Z,95387.59
2022-09-10T07:06:26.198Z,95389.69
2022-09-10T07:08:57.087Z,95385.97
2022-09-10T07:11:25.332Z,95390.53
2022-09-10T07:13:53.838Z,95385.97
2022-09-10T07:16:21.823Z,95383.88
2022-09-10T07:18:54.529Z,95386.00
2022-09-10T07:21:22.594Z,95380.97
2022-09-10T07:23:50.116Z,95374.78
2022-09-10T07:26:19.606Z,95379.06
2022-09-10T07:28:46.326Z,95380.69
2022-09-10T07:31:13.711Z,95380.16
2022-09-10T07:33:40.698Z,95382.31
2022-09-10T07:36:08.032Z,95375.91
2022-09-10T07:38:34.905Z,95374.28
2022-09-10T07:41:02.294Z,95375.94
2022-09-10T07:43:29.573Z,95383.44
2022-09-10T07:45:59.050Z,95382.09
2022-09-10T07:48:28.456Z,95389.88
2022-09-10T07:51:01.672Z,95380.50
2022-09-10T07:53:28.230Z,95386.66
2022-09-10T07:56:08.153Z,95382.91
2022-09-10T07:58:36.174Z,95381.28
2022-09-10T08:01:09.216Z,95385.56
2022-09-10T08:03:35.783Z,95379.69
2022-09-10T08:06:03.288Z,95387.75
2022-09-10T08:08:34.164Z,95390.19
2022-09-10T08:11:11.984Z,95386.97
2022-09-10T08:13:45.112Z,95390.69
2022-09-10T08:16:14.773Z,95392.81
2022-09-10T08:18:43.089Z,95391.50
2022-09-10T08:21:09.616Z,95383.47
2022-09-10T08:23:37.303Z,95384.25
2022-09-10T08:26:05.315Z,95392.78
2022-09-10T08:28:32.061Z,95396.28
2022-09-10T08:31:07.667Z,95382.34
2022-09-10T08:33:36.057Z,95377.50
2022-09-10T08:36:03.819Z,95383.16
2022-09-10T08:38:39.802Z,95387.44
2022-09-10T08:41:21.892Z,95389.88
2022-09-10T08:43:59.074Z,95393.84
2022-09-10T08:46:32.094Z,95390.63
2022-09-10T08:49:27.900Z,95390.34
2022-09-10T08:52:00.589Z,95381.25
2022-09-10T08:54:34.642Z,95382.81
2022-09-10T08:57:02.377Z,95387.06
2022-09-10T08:59:34.298Z,95394.81
2022-09-10T09:02:31.586Z,95399.94
2022-09-10T09:05:16.217Z,95386.28
2022-09-10T09:07:42.912Z,95392.41
2022-09-10T09:10:21.497Z,95388.69
2022-09-10T09:13:29.129Z,95389.25
2022-09-10T09:16:07.208Z,95381.75
2022-09-10T09:19:07.687Z,95380.66
2022-09-10T09:21:45.760Z,95389.53
2022-09-10T09:24:27.545Z,95381.78
2022-09-10T09:27:01.904Z,95384.22
2022-09-10T09:30:01.464Z,95386.09
2022-09-10T09:32:33.142Z,95386.66
2022-09-10T09:35:22.653Z,95392.53
2022-09-10T09:38:03.804Z,95388.00
2022-09-10T09:40:43.564Z,95381.38
2022-09-10T09:43:23.715Z,95389.44
2022-09-10T09:45:53.151Z,95386.22
2022-09-10T09:48:21.582Z,95390.78
2022-09-10T09:50:55.733Z,95384.41
2022-09-10T09:53:25.313Z,95389.78
2022-09-10T09:55:59.288Z,95388.44
2022-09-10T09:58:26.458Z,95386.28
2022-09-10T10:01:05.183Z,95390.59
2022-09-10T10:03:35.473Z,95388.97
2022-09-10T10:06:06.056Z,95380.38
2022-09-10T10:08:42.686Z,95386.25
2022-09-10T10:11:11.541Z,95378.22
2022-09-10T10:13:40.860Z,95367.53
2022-09-10T10:16:35.743Z,95358.97
2022-09-10T10:19:02.812Z,95369.19
2022-09-10T10:21:31.794Z,95368.91
2022-09-10T10:23:58.422Z,95374.28
2022-09-10T10:26:34.849Z,95383.34
2022-09-10T10:29:06.475Z,95384.16
2022-09-10T10:31:40.330Z,95392.75
2022-09-10T10:34:09.557Z,95389.00
2022-09-10T10:36:52.526Z,95382.84
2022-09-10T10:39:21.951Z,95381.22
2022-09-10T10:42:06.840Z,95378.56
2022-09-10T10:45:24.343Z,95367.03
2022-09-10T10:48:20.944Z,95376.72
2022-09-10T10:51:29.106Z,95372.47
2022-09-10T10:54:04.616Z,95372.22
2022-09-10T10:56:52.974Z,95373.25
2022-09-10T10:59:33.073Z,95381.03
2022-09-10T11:02:20.883Z,95370.09
2022-09-10T11:04:51.009Z,95371.94
2022-09-10T11:07:24.026Z,95375.19
2022-09-10T11:09:58.967Z,95372.50
2022-09-10T11:12:34.029Z,95378.41
2022-09-10T11:15:15.990Z,95371.44
2022-09-10T11:18:22.070Z,95364.75
2022-09-10T11:21:12.019Z,95372.50
2022-09-10T11:23:51.638Z,95371.16
2022-09-10T11:26:38.924Z,95365.78
2022-09-10T11:29:16.836Z,95369.81
2022-09-10T11:31:47.812Z,95373.81
2022-09-10T11:34:37.471Z,95371.94
2022-09-10T11:37:36.451Z,95375.69
2022-09-10T11:40:06.187Z,95368.72
2022-09-10T11:42:40.155Z,95370.31
2022-09-10T11:45:13.899Z,95367.13
2022-09-10T11:47:50.293Z,95363.09
2022-09-10T11:50:33.677Z,95361.25
2022-09-10T11:53:02.420Z,95364.47
2022-09-10T11:56:05.889Z,95366.31
2022-09-10T11:59:14.379Z,95362.31
2022-09-10T12:02:02.796Z,95353.22
2022-09-10T12:04:39.810Z,95348.13
2022-09-10T12:07:46.269Z,95358.56
2022-09-10T12:10:40.765Z,95359.13
2022-09-10T12:13:13.920Z,95361.25
2022-09-10T12:15:41.068Z,95357.00
2022-09-10T12:18:21.853Z,95353.22
2022-09-10T12:21:28.006Z,95355.34
2022-09-10T12:23:55.983Z,95351.63
2022-09-10T12:26:23.560Z,95348.41
2022-09-10T12:28:52.764Z,95352.13
2022-09-10T12:31:21.620Z,95358.03
2022-09-10T12:33:48.087Z,95353.75
2022-09-10T12:36:35.473Z,95355.34
2022-09-10T12:39:20.406Z,95361.25
2022-09-10T12:41:46.868Z,95355.31
2022-09-10T12:44:25.373Z,95353.19
2022-09-10T12:47:13.669Z,95345.16
2022-09-10T12:49:55.549Z,95345.16
2022-09-10T12:52:49.129Z,95340.34
2022-09-10T12:55:43.372Z,95343.03
2022-09-10T12:58:35.000Z,95336.31
2022-09-10T13:01:10.612Z,95345.69
2022-09-10T13:03:37.749Z,95341.66
2022-09-10T13:06:07.066Z,95344.06
2022-09-10T13:08:41.578Z,95344.31
2022-09-10T13:11:22.464Z,95345.13
2022-09-10T13:13:48.881Z,95350.97
2022-09-10T13:16:38.394Z,95350.19
2022-09-10T13:19:14.088Z,95352.59
2022-09-10T13:21:40.541Z,95356.03
2022-09-10T13:24:35.815Z,95357.41
2022-09-10T13:27:08.079Z,95357.09
2022-09-10T13:29:41.393Z,95355.72
2022-09-10T13:32:16.760Z,95346.84
2022-09-10T13:35:08.518Z,95339.88
2022-09-10T13:37:53.774Z,95335.38
2022-09-10T13:40:48.900Z,95336.97
2022-09-10T13:43:22.517Z,95327.91
2022-09-10T13:45:58.873Z,95338.66
2022-09-10T13:48:28.954Z,95341.34
2022-09-10T13:51:14.666Z,95338.94
2022-09-10T13:53:44.390Z,95341.34
2022-09-10T13:56:22.836Z,95350.44
2022-09-10T13:58:52.165Z,95342.94
2022-09-10T14:01:18.863Z,95344.28
2022-09-10T14:03:45.481Z,95344.56
2022-09-10T14:06:23.873Z,95348.31
2022-09-10T14:09:02.188Z,95347.78
2022-09-10T14:11:35.833Z,95343.50
2022-09-10T14:14:10.394Z,95345.13
2022-09-10T14:16:42.044Z,95345.16
2022-09-10T14:19:17.456Z,95352.09
2022-09-10T14:21:48.841Z,95345.16
2022-09-10T14:24:31.856Z,95341.38
2022-09-10T14:27:16.925Z,95345.13
2022-09-10T14:29:43.674Z,95338.97
2022-09-10T14:32:31.675Z,95337.13
2022-09-10T14:34:59.429Z,95334.47
2022-09-10T14:37:25.842Z,95329.09
2022-09-10T14:39:52.391Z,95325.63
2022-09-10T14:42:35.538Z,95331.25
2022-09-10T14:45:03.140Z,95330.69
2022-09-10T14:47:35.847Z,95333.91
2022-09-10T14:50:31.562Z,95329.34
2022-09-10T14:52:58.775Z,95321.31
2022-09-10T14:55:28.325Z,95325.31
2022-09-10T14:57:56.490Z,95326.94
2022-09-10T15:00:23.917Z,95327.47
2022-09-10T15:02:53.347Z,95328.53
2022-09-10T15:05:20.323Z,95324.56
2022-09-10T15:07:47.509Z,95332.03
2022-09-10T15:10:14.147Z,95326.97
2022-09-10T15:12:43.295Z,95336.03
2022-09-10T15:15:16.482Z,95335.50
2022-09-10T15:17:44.175Z,95326.41
2022-09-10T15:20:17.102Z,95332.28
2022-09-10T15:22:44.308Z,95332.81
2022-09-10T15:25:46.519Z,95324.00
2022-09-10T15:28:13.040Z,95322.63
2022-09-10T15:30:39.660Z,95322.63
2022-09-10T15:33:07.232Z,95322.06
2022-09-10T15:35:33.875Z,95326.63
2022-09-10T15:38:03.578Z,95329.53
2022-09-10T15:40:30.110Z,95327.94
2022-09-10T15:42:57.826Z,95326.34
2022-09-10T15:45:24.449Z,95315.94
2022-09-10T15:47:51.062Z,95315.13
2022-09-10T15:50:17.777Z,95318.34
2022-09-10T15:52:45.071Z,95322.34
2022-09-10T15:55:12.516Z,95321.31
2022-09-10T15:57:40.396Z,95320.22
2022-09-10T16:00:07.685Z,95328.53
2022-09-10T16:02:34.400Z,95323.72
2022-09-10T16:05:03.512Z,95317.53
2022-09-10T16:07:29.947Z,95325.28
2022-09-10T16:09:58.773Z,95334.88
2022-09-10T16:12:28.404Z,95327.66
2022-09-10T16:14:55.780Z,95328.47
2022-09-10T16:17:22.452Z,95323.56
2022-09-10T16:19:49.738Z,95332.91
2022-09-10T16:22:20.418Z,95327.84
2022-09-10T16:24:47.213Z,95331.09
2022-09-10T16:27:13.760Z,95343.91
2022-09-10T16:29:43.555Z,95337.16
2022-09-10T16:32:10.831Z,95335.56
2022-09-10T16:34:38.596Z,95336.59
2022-09-10T16:37:05.187Z,95329.91
2022-09-10T16:39:31.759Z,95309.56
2022-09-10T16:41:58.222Z,95317.31
2022-09-10T16:44:24.692Z,95321.31
2022-09-10T16:46:51.196Z,95321.03
2022-09-10T16:49:19.768Z,95330.41
2022-09-10T16:51:49.001Z,95329.56
2022-09-10T16:54:19.400Z,95336.22
2022-09-10T16:56:48.760Z,95335.13
2022-09-10T16:59:21.393Z,95333.44
2022-09-10T17:01:49.619Z,95336.63
2022-09-10T17:04:25.947Z,95343.50
2022-09-10T17:06:55.447Z,95345.31
2022-09-10T17:09:22.688Z,95342.09
2022-09-10T17:11:49.270Z,95347.75
2022-09-10T17:14:15.726Z,95345.53
2022-09-10T17:16:43.549Z,95350.84
2022-09-10T17:19:16.786Z,95366.78
2022-09-10T17:21:47.324Z,95358.16
2022-09-10T17:24:13.785Z,95356.00
2022-09-10T17:26:41.540Z,95364.53
2022-09-10T17:29:11.237Z,95359.69
2022-09-10T17:31:37.740Z,95377.56
2022-09-10T17:47:02.878Z,95369.56
2022-09-10T17:49:29.352Z,95367.13
2022-09-10T17:51:55.888Z,95374.25
2022-09-10T17:54:23.441Z,95376.25
2022-09-10T17:56:49.987Z,95370.84
2022-09-10T17:59:16.555Z,95380.19
2022-09-10T18:01:43.244Z,95370.50
2022-09-10T18:04:15.732Z,95367.56
2022-09-10T18:06:42.240Z,95367.25
2022-09-10T18:09:08.750Z,95358.69
2022-09-10T18:11:38.282Z,95360.53
2022-09-10T18:14:05.082Z,95364.28
2022-09-10T18:16:33.694Z,95365.88
2022-09-10T18:19:03.098Z,95359.44
2022-09-10T18:21:35.076Z,95357.84
2022-09-10T18:24:07.611Z,95351.38
2022-09-10T18:26:39.505Z,95350.28
2022-09-10T18:29:07.808Z,95345.47
2022-09-10T18:31:37.592Z,95352.41
2022-09-10T18:34:06.652Z,95354.16
2022-09-10T18:36:34.082Z,95350.88
2022-09-10T18:39:05.986Z,95348.44
2022-09-10T18:41:36.478Z,95350.09
2022-09-10T18:44:05.473Z,95359.44
2022-09-10T18:46:32.878Z,95359.13
2022-09-10T18:49:00.105Z,95347.88
2022-09-10T18:51:28.909Z,95353.00
2022-09-10T18:53:58.347Z,95354.34
2022-09-10T18:56:28.020Z,95351.13
2022-09-10T18:58:57.119Z,95355.41
2022-09-10T19:01:24.214Z,95352.38
2022-09-10T19:03:51.039Z,95340.59
2022-09-10T19:06:23.889Z,95345.63
2022-09-10T19:08:56.117Z,95349.84
2022-09-10T19:11:24.695Z,95349.34
2022-09-10T19:13:53.644Z,95347.25
2022-09-10T19:16:22.111Z,95347.97
2022-09-10T19:18:56.287Z,95343.72
2022-09-10T19:21:24.119Z,95346.63
2022-09-10T19:23:55.177Z,95332.72
2022-09-10T19:26:25.218Z,95335.16
2022-09-10T19:28:52.358Z,95333.81
2022-09-10T19:31:20.788Z,95337.06
2022-09-10T19:33:47.878Z,95328.78
2022-09-10T19:36:17.724Z,95331.47
2022-09-10T19:38:44.488Z,95326.94
2022-09-10T19:41:19.091Z,95342.38
2022-09-10T19:43:47.289Z,95346.69
2022-09-10T19:46:15.349Z,95343.78
2022-09-10T19:48:43.464Z,95344.31
2022-09-10T19:51:20.255Z,95346.75
2022-09-10T19:53:48.306Z,95343.81
2022-09-10T19:56:36.377Z,95350.25
2022-09-10T19:59:08.564Z,95342.81
2022-09-10T20:01:38.225Z,95347.66
2022-09-10T20:04:07.350Z,95348.44
2022-09-10T20:06:34.741Z,95350.34
2022-09-10T20:09:02.425Z,95350.03
2022-09-10T20:11:32.361Z,95350.25
2022-09-10T20:14:08.039Z,95346.81
2022-09-10T20:16:39.791Z,95353.16
2022-09-10T20:19:07.211Z,95361.19
2022-09-10T20:21:34.882Z,95360.13
2022-09-10T20:24:01.510Z,95369.75
2022-09-10T20:26:31.559Z,95366.50
2022-09-10T20:29:03.854Z,95359.31
2022-09-10T20:31:32.580Z,95374.78
2022-09-10T20:34:02.098Z,95379.25
2022-09-10T20:36:29.122Z,95368.59
2022-09-10T20:38:56.112Z,95368.59
2022-09-10T20:41:23.483Z,95371.78
2022-09-10T20:43:53.467Z,95367.28
2022-09-10T20:46:22.275Z,95370.75
2022-09-10T20:48:50.241Z,95374.22
2022-09-10T20:51:21.222Z,95366.47
2022-09-10T20:53:48.212Z,95364.34
2022-09-10T20:56:17.882Z,95361.44
2022-09-10T20:58:45.389Z,95361.19
2022-09-10T21:01:13.344Z,95351.81
2022-09-10T21:03:43.749Z,95351.25
2022-09-10T21:06:11.829Z,95352.59
2022-09-10T21:08:40.633Z,95351.78
2022-09-10T21:11:09.823Z,95344.59
2022-09-10T21:13:37.442Z,95344.81
2022-09-10T21:16:07.984Z,95334.13
2022-09-10T21:18:35.334Z,95336.28
2022-09-10T21:21:13.683Z,95333.34
2022-09-10T21:23:44.976Z,95330.44
2022-09-10T21:26:13.008Z,95333.09
2022-09-10T21:28:40.672Z,95334.13
2022-09-10T21:31:09.129Z,95344.03
2022-09-10T21:33:36.496Z,95343.47
2022-09-10T21:36:06.426Z,95346.19
2022-09-10T21:38:37.980Z,95345.13
2022-09-10T21:41:11.896Z,95347.25
2022-09-10T21:43:43.016Z,95350.97
2022-09-10T21:46:10.502Z,95356.84
2022-09-10T21:48:37.274Z,95359.00
2022-09-10T21:51:06.391Z,95362.25
2022-09-10T21:53:34.592Z,95358.50
2022-09-10T21:56:03.333Z,95357.72
2022-09-10T21:58:32.992Z,95360.66
2022-09-10T22:00:59.799Z,95348.28
2022-09-10T22:03:31.513Z,95357.91
2022-09-10T22:06:05.990Z,95352.59
2022-09-10T22:08:33.375Z,95351.50
2022-09-10T22:11:08.892Z,95344.59
2022-09-10T22:13:37.939Z,95345.13
2022-09-10T22:16:07.539Z,95339.31
2022-09-10T22:18:34.244Z,95340.91
2022-09-10T22:21:00.919Z,95340.41
2022-09-10T22:23:29.465Z,95345.16
2022-09-10T22:26:03.147Z,95349.16
2022-09-10T22:28:34.297Z,95348.91
2022-09-10T22:31:19.105Z,95348.91
2022-09-10T22:33:50.533Z,95354.81
2022-09-10T22:36:26.658Z,95344.63
2022-09-10T22:39:01.587Z,95344.59
2022-09-10T22:41:29.787Z,95351.78
2022-09-10T22:43:57.094Z,95347.47
2022-09-10T22:46:24.112Z,95347.72
2022-09-10T22:48:50.926Z,95353.25
2022-09-10T22:51:19.552Z,95353.75
2022-09-10T22:53:46.770Z,95360.38
2022-09-10T22:56:14.328Z,95363.00
2022-09-10T22:58:41.382Z,95355.75
2022-09-10T23:01:10.846Z,95360.56
2022-09-10T23:03:37.925Z,95351.53
2022-09-10T23:06:16.866Z,95351.84
2022-09-10T23:08:45.533Z,95353.69
2022-09-10T23:11:21.112Z,95353.38
2022-09-10T23:13:50.360Z,95354.47
2022-09-10T23:16:22.980Z,95356.25
2022-09-10T23:18:51.604Z,95364.97
2022-09-10T23:21:19.412Z,95356.34
2022-09-10T23:23:48.210Z,95362.16
2022-09-10T23:26:15.797Z,95368.22
2022-09-10T23:28:42.459Z,95366.88
2022-09-10T23:31:17.738Z,95361.03
2022-09-10T23:33:54.426Z,95355.66
2022-09-10T23:36:21.604Z,95352.91
2022-09-10T23:38:48.220Z,95364.28
2022-09-10T23:41:17.590Z,95360.03
2022-09-10T23:43:45.466Z,95361.31
2022-09-10T23:46:12.727Z,95357.84
2022-09-10T23:48:39.785Z,95351.16
2022-09-10T23:51:06.650Z,95348.91
2022-09-10T23:53:33.419Z,95352.06
2022-09-10T23:56:02.830Z,95347.00
2022-09-10T23:58:29.947Z,95350.44
